Time;durP1;ratioP1;P1;durP2;ratioP2;P2;SDS_P1;SDS_P2;PMS_P1;PMS_P2;Temp;Humidity;BMP_temperature;BMP_pressure;BME280_temperature;BME280_humidity;BME280_pressure;Samples;Min_cycle;Max_cycle;Signal;HPM_P1;HPM_P2
2021/01/19 00:02:55;;;;;;;94.23;48.97;;;;;;;-9.50;75.92;99535.89;491937;1128;114578;-59
2021/01/19 00:12:59;;;;;;;62.37;32.70;;;;;;;-9.37;76.73;99527.63;492605;1128;116071;-60
2021/01/19 00:23:03;;;;;;;86.17;44.40;;;;;;;-9.29;76.89;99512.47;492426;1128;114517;-60
2021/01/19 00:33:08;;;;;;;79.32;41.37;;;;;;;-9.17;76.89;99499.94;493062;1128;115118;-62
2021/01/19 00:43:12;;;;;;;85.03;45.17;;;;;;;-9.07;77.29;99493.28;492803;1127;115690;-60
2021/01/19 00:53:16;;;;;;;97.63;47.53;;;;;;;-8.96;77.81;99495.99;493311;1127;115930;-59
2021/01/19 01:03:19;;;;;;;74.60;38.80;;;;;;;-8.84;78.54;99484.27;492763;1129;114607;-59
2021/01/19 01:13:23;;;;;;;87.83;46.00;;;;;;;-8.77;78.39;99468.22;492519;1129;114570;-59
2021/01/19 01:23:27;;;;;;;88.10;43.60;;;;;;;-8.66;79.11;99461.56;492578;1128;115030;-60
2021/01/19 01:33:31;;;;;;;77.37;41.47;;;;;;;-8.49;79.27;99440.52;492392;1129;114577;-60
2021/01/19 01:43:35;;;;;;;69.73;38.20;;;;;;;-8.34;78.21;99434.73;492561;1129;114493;-59
2021/01/19 01:53:40;;;;;;;84.15;43.10;;;;;;;-8.18;79.26;99406.02;492358;1128;114487;-60
2021/01/19 02:03:44;;;;;;;93.60;47.98;;;;;;;-8.07;79.22;99405.25;492536;1129;114478;-59
2021/01/19 02:13:58;;;;;;;78.30;44.83;;;;;;;-7.88;78.79;99390.97;492751;1128;114577;-58
2021/01/19 02:24:11;;;;;;;80.47;37.60;;;;;;;-7.67;78.90;99377.54;492526;1128;114386;-59
2021/01/19 02:34:25;;;;;;;72.70;41.50;;;;;;;-7.55;78.84;99363.16;492217;1129;115570;-59
2021/01/19 02:44:31;;;;;;;86.47;41.27;;;;;;;-7.46;79.21;99352.98;492288;1129;115097;-59
2021/01/19 02:54:37;;;;;;;73.60;39.65;;;;;;;-7.35;79.17;99347.95;492787;1128;114911;-59
2021/01/19 03:04:44;;;;;;;70.30;37.13;;;;;;;-7.29;79.05;99349.68;493039;1129;114430;-58
2021/01/19 03:14:48;;;;;;;80.05;42.90;;;;;;;-7.17;79.04;99325.05;493331;1127;114294;-58
2021/01/19 03:24:52;;;;;;;77.73;40.50;;;;;;;-7.15;79.46;99324.23;492536;1128;115531;-60
2021/01/19 03:34:56;;;;;;;73.30;40.53;;;;;;;-7.07;79.45;99318.30;492789;1129;114319;-59
2021/01/19 03:45:00;;;;;;;70.13;38.80;;;;;;;-6.93;79.45;99313.21;492879;1128;114308;-59
2021/01/19 03:55:06;;;;;;;65.45;37.20;;;;;;;-6.89;80.04;99306.42;493341;1128;115198;-59
2021/01/19 04:05:09;;;;;;;;;;;;;;;-6.76;79.90;99308.14;493083;1129;114338;-59
2021/01/19 04:15:14;;;;;;;67.90;36.20;;;;;;;-6.67;79.73;99294.56;492709;1129;101561;-60
2021/01/19 04:25:18;;;;;;;65.30;32.80;;;;;;;-6.51;79.90;99297.12;492357;1128;114342;-61
2021/01/19 04:35:22;;;;;;;76.77;43.13;;;;;;;-6.50;79.97;99291.16;492579;1129;114343;-59
2021/01/19 04:45:27;;;;;;;72.73;42.57;;;;;;;-6.43;79.94;99295.42;492357;1129;115739;-60
2021/01/19 04:55:37;;;;;;;75.03;38.37;;;;;;;-6.37;79.77;99302.25;493117;1127;115871;-58
2021/01/19 05:06:27;;;;;;;68.33;38.60;;;;;;;-6.33;79.87;99296.27;492924;1129;114320;-59
2021/01/19 05:16:33;;;;;;;73.87;38.80;;;;;;;-6.25;79.81;99291.16;491687;1129;114314;-61
2021/01/19 05:26:42;;;;;;;85.50;46.27;;;;;;;-6.21;79.60;99282.66;491958;1128;114291;-59
2021/01/19 05:36:48;;;;;;;69.37;38.17;;;;;;;-6.25;80.06;99269.02;492199;1128;114325;-60
2021/01/19 05:47:00;;;;;;;77.70;41.35;;;;;;;-6.18;80.39;99262.19;491739;1129;114476;-60
2021/01/19 05:57:08;;;;;;;76.33;42.73;;;;;;;-6.13;80.32;99265.58;492086;1128;114453;-58
2021/01/19 06:07:13;;;;;;;77.20;41.67;;;;;;;-6.08;80.72;99258.77;491615;1129;114613;-58
2021/01/19 06:17:20;;;;;;;80.47;42.60;;;;;;;-5.92;80.58;99256.14;492240;1128;114940;-61
2021/01/19 06:27:31;;;;;;;87.40;45.37;;;;;;;-5.64;80.98;99249.24;492835;1129;115034;-59
2021/01/19 06:37:36;;;;;;;79.73;44.23;;;;;;;-5.37;80.26;99254.27;493482;1129;115016;-60
2021/01/19 06:47:49;;;;;;;59.25;33.90;;;;;;;-5.15;79.99;99259.28;493043;1129;114441;-61
2021/01/19 06:58:32;;;;;;;85.90;44.80;;;;;;;-4.96;80.96;99250.64;493281;1130;114510;-60
2021/01/19 07:09:13;;;;;;;81.00;44.40;;;;;;;-4.84;80.77;99257.38;493134;1128;114536;-60
2021/01/19 07:19:29;;;;;;;79.73;45.13;;;;;;;-4.59;79.83;99251.25;493219;1128;114454;-61
2021/01/19 07:29:33;;;;;;;83.27;43.45;;;;;;;-4.31;80.22;99241.61;492894;1129;114428;-59
2021/01/19 07:39:37;;;;;;;87.23;47.60;;;;;;;-4.14;81.09;99249.16;493338;1129;115281;-60
2021/01/19 07:49:42;;;;;;;94.00;50.10;;;;;;;-3.92;80.77;99248.08;493039;1128;114794;-61
2021/01/19 07:59:46;;;;;;;94.33;51.17;;;;;;;-3.75;80.54;99235.94;485024;1128;10002013;-61
2021/01/19 08:09:50;;;;;;;85.40;51.57;;;;;;;-3.55;80.51;99239.96;492843;1128;115216;-60
2021/01/19 08:20:06;;;;;;;97.83;52.77;;;;;;;-3.29;80.78;99238.78;492984;1129;114918;-60
2021/01/19 08:30:25;;;;;;;97.70;60.20;;;;;;;-3.01;81.05;99238.42;492679;1128;116041;-62
2021/01/19 08:40:31;;;;;;;101.60;63.40;;;;;;;-2.74;80.68;99238.87;492995;1129;114921;-60
2021/01/19 08:50:37;;;;;;;103.20;66.37;;;;;;;-2.45;80.38;99240.16;484376;1128;10001327;-60
2021/01/19 09:00:41;;;;;;;119.40;75.45;;;;;;;-2.09;80.65;99229.23;492261;1128;115263;-60
2021/01/19 09:10:46;;;;;;;122.23;72.10;;;;;;;-1.80;80.67;99231.27;495012;1129;115048;-61
2021/01/19 09:21:02;;;;;;;149.30;85.80;;;;;;;-1.57;81.05;99224.82;493019;1129;115108;-62
2021/01/19 09:31:11;;;;;;;133.75;82.20;;;;;;;-1.21;80.90;99212.08;492993;1129;115087;-64
2021/01/19 09:41:17;;;;;;;106.70;66.00;;;;;;;-0.96;81.15;99208.08;493362;1128;115047;-70
2021/01/19 09:51:27;;;;;;;76.20;49.42;;;;;;;-0.75;81.58;99194.70;493250;1128;114967;-69
2021/01/19 10:01:31;;;;;;;40.33;27.27;;;;;;;-0.58;83.05;99185.69;493565;1129;114975;-68
2021/01/19 10:11:37;;;;;;;27.03;16.63;;;;;;;-0.14;83.13;99180.29;493290;1130;115177;-69
2021/01/19 10:21:49;;;;;;;21.43;14.80;;;;;;;0.04;82.58;99172.91;493630;1129;114925;-61
2021/01/19 10:31:59;;;;;;;15.17;11.67;;;;;;;0.17;82.83;99160.52;493144;1128;114760;-67
2021/01/19 10:42:04;;;;;;;18.27;14.57;;;;;;;0.47;82.83;99151.03;493605;1128;114382;-67
2021/01/19 10:52:12;;;;;;;19.77;16.53;;;;;;;0.54;83.39;99149.11;493358;1128;114997;-69
2021/01/19 11:02:15;;;;;;;20.83;14.37;;;;;;;0.60;82.86;99140.33;493533;1128;115141;-66
2021/01/19 11:12:20;;;;;;;26.20;18.00;;;;;;;0.50;82.58;99139.78;493204;1129;114682;-68
2021/01/19 11:22:24;;;;;;;28.20;20.15;;;;;;;0.61;83.60;99135.13;493330;1128;114666;-66
2021/01/19 11:32:28;;;;;;;24.43;15.77;;;;;;;0.67;82.51;99121.17;493375;1128;114649;-70
2021/01/19 11:42:35;;;;;;;26.93;18.17;;;;;;;0.61;83.04;99113.59;493417;1129;114607;-68
2021/01/19 11:52:39;;;;;;;23.60;18.17;;;;;;;0.61;83.47;99087.77;493361;1128;114663;-66
2021/01/19 12:02:43;;;;;;;30.10;19.90;;;;;;;0.68;83.73;99089.27;493162;1128;114102;-70
2021/01/19 12:12:49;;;;;;;33.07;20.40;;;;;;;0.67;83.10;99075.48;492954;1127;114591;-73
2021/01/19 12:22:53;;;;;;;33.47;22.20;;;;;;;0.62;83.83;99054.13;492947;1128;114589;-72
2021/01/19 12:32:57;;;;;;;32.37;21.90;;;;;;;0.60;83.25;99040.42;493019;1128;114716;-64
2021/01/19 12:43:01;;;;;;;33.95;23.15;;;;;;;0.68;83.97;99030.66;493145;1129;115389;-65
2021/01/19 12:53:06;;;;;;;35.50;22.93;;;;;;;0.86;83.72;99023.21;493102;1128;115181;-63
2021/01/19 13:03:10;;;;;;;46.30;27.17;;;;;;;0.93;83.63;99019.54;493252;1128;114250;-63
2021/01/19 13:13:15;;;;;;;42.70;27.30;;;;;;;0.84;83.77;99010.33;493102;1128;114242;-64
2021/01/19 13:23:19;;;;;;;59.30;35.00;;;;;;;0.92;83.92;98998.89;492970;1128;114254;-64
2021/01/19 13:33:24;;;;;;;49.27;30.40;;;;;;;1.04;83.70;98987.27;492928;1129;114343;-65
2021/01/19 13:43:28;;;;;;;57.10;34.23;;;;;;;1.09;83.26;98982.80;493366;1129;114254;-74
2021/01/19 13:53:32;;;;;;;42.60;27.93;;;;;;;1.07;83.79;98985.43;495196;1128;114894;-74
2021/01/19 14:03:37;;;;;;;42.43;27.50;;;;;;;1.12;83.35;98964.59;495662;1128;114198;-73
2021/01/19 14:13:41;;;;;;;34.27;23.80;;;;;;;1.10;83.51;98958.63;495380;1128;114097;-75
2021/01/19 14:23:45;;;;;;;39.13;24.60;;;;;;;1.06;83.80;98951.89;495028;1128;114027;-74
2021/01/19 14:33:50;;;;;;;37.00;25.40;;;;;;;0.93;82.82;98949.73;494740;1129;113964;-75
2021/01/19 14:43:54;;;;;;;36.35;22.40;;;;;;;0.74;83.74;98940.92;494881;1128;114024;-74
2021/01/19 14:53:58;;;;;;;44.85;29.15;;;;;;;0.54;83.90;98925.20;494790;1128;114328;-74
2021/01/19 15:04:04;;;;;;;40.67;29.13;;;;;;;0.48;84.34;98914.23;494731;1128;113967;-75
2021/01/19 15:14:12;;;;;;;40.50;23.87;;;;;;;0.44;83.59;98922.95;495156;1128;114052;-74
2021/01/19 15:24:17;;;;;;;36.37;23.77;;;;;;;0.46;84.61;98910.83;494748;1129;113990;-75
2021/01/19 15:34:23;;;;;;;45.17;29.37;;;;;;;0.35;84.48;98896.56;494711;1128;114445;-74
2021/01/19 15:44:28;;;;;;;35.83;24.87;;;;;;;0.28;84.62;98890.72;495237;1127;115543;-74
2021/01/19 15:54:32;;;;;;;36.67;24.50;;;;;;;0.28;84.37;98882.16;495002;1128;113938;-75
2021/01/19 16:04:36;;;;;;;42.30;26.30;;;;;;;0.19;83.84;98859.21;495105;1129;113980;-74
2021/01/19 16:14:42;;;;;;;38.13;27.20;;;;;;;0.11;84.54;98836.23;494862;1128;114389;-75
2021/01/19 16:24:46;;;;;;;53.83;29.17;;;;;;;0.11;84.32;98828.48;494517;1128;113962;-74
2021/01/19 16:34:50;;;;;;;41.23;25.90;;;;;;;0.14;85.17;98818.05;494834;1128;114076;-74
2021/01/19 16:44:54;;;;;;;39.55;25.60;;;;;;;0.19;84.63;98802.41;494863;1128;114569;-74
2021/01/19 16:54:58;;;;;;;40.00;25.60;;;;;;;0.21;84.26;98801.47;494864;1128;114588;-74
2021/01/19 17:05:02;;;;;;;39.43;26.27;;;;;;;0.07;84.66;98801.10;494500;1128;114035;-74
2021/01/19 17:15:08;;;;;;;37.57;23.93;;;;;;;0.01;84.46;98799.57;494630;1128;114135;-74
2021/01/19 17:25:14;;;;;;;37.70;26.47;;;;;;;0.01;84.89;98802.16;494705;1128;113960;-74
2021/01/19 17:35:18;;;;;;;39.15;27.75;;;;;;;0.05;84.26;98806.30;494782;1126;114807;-75
2021/01/19 17:45:22;;;;;;;39.45;23.70;;;;;;;0.08;84.46;98776.97;494810;1128;114239;-74
2021/01/19 17:55:26;;;;;;;47.77;27.87;;;;;;;0.10;84.09;98775.17;496320;1126;114501;-74
2021/01/19 18:05:30;;;;;;;48.20;29.50;;;;;;;0.11;84.28;98766.53;495010;1128;114061;-75
2021/01/19 18:15:35;;;;;;;51.03;30.63;;;;;;;0.05;84.79;98756.40;495300;1128;114131;-76
2021/01/19 18:25:42;;;;;;;39.03;25.83;;;;;;;0.01;85.33;98749.67;486869;1128;10001229;-74
2021/01/19 18:35:46;;;;;;;44.47;28.07;;;;;;;-0.07;84.95;98753.34;495236;1128;114846;-74
2021/01/19 18:45:50;;;;;;;49.55;29.65;;;;;;;-0.08;84.98;98761.98;495478;1128;114906;-76
2021/01/19 18:55:54;;;;;;;53.17;32.80;;;;;;;-0.05;84.94;98759.32;494304;1128;115172;-64
2021/01/19 19:05:58;;;;;;;38.80;25.67;;;;;;;-0.06;85.26;98749.89;492634;1129;114946;-65
2021/01/19 19:16:02;;;;;;;37.23;26.03;;;;;;;-0.10;84.68;98750.87;492326;1129;114414;-64
2021/01/19 19:26:09;;;;;;;37.90;26.63;;;;;;;-0.16;85.56;98745.94;492370;1128;114305;-65
2021/01/19 19:36:13;;;;;;;48.63;28.20;;;;;;;-0.24;84.79;98740.18;493242;1128;115234;-65
2021/01/19 19:46:21;;;;;;;36.87;23.07;;;;;;;-0.22;85.53;98720.33;492883;1128;114858;-66
2021/01/19 19:56:25;;;;;;;34.77;24.07;;;;;;;-0.21;85.95;98724.59;492715;1129;114647;-66
2021/01/19 20:06:30;;;;;;;33.43;22.43;;;;;;;-0.21;86.31;98720.28;492739;1128;114792;-64
2021/01/19 20:16:40;;;;;;;36.40;22.73;;;;;;;-0.20;85.07;98701.33;492907;1128;114713;-65
2021/01/19 20:26:45;;;;;;;35.90;19.80;;;;;;;-0.20;85.63;98692.73;492888;1128;114668;-64
2021/01/19 20:36:49;;;;;;;22.47;18.93;;;;;;;-0.28;86.38;98687.84;492145;1129;114330;-65
2021/01/19 20:46:54;;;;;;;28.83;18.90;;;;;;;-0.31;85.72;98682.78;492083;1129;114672;-65
2021/01/19 20:57:01;;;;;;;24.40;17.65;;;;;;;-0.34;85.68;98675.16;492588;1133;114999;-65
2021/01/19 21:07:05;;;;;;;41.97;26.27;;;;;;;-0.33;85.77;98662.19;492849;1128;115464;-65
2021/01/19 21:17:10;;;;;;;37.07;22.67;;;;;;;-0.38;86.16;98676.99;492908;1128;114781;-64
2021/01/19 21:27:15;;;;;;;32.07;21.53;;;;;;;-0.36;86.59;98677.78;492410;1128;114717;-64
2021/01/19 21:37:19;;;;;;;24.70;17.57;;;;;;;-0.37;86.51;98664.92;492373;1129;115373;-65
2021/01/19 21:47:24;;;;;;;21.27;16.23;;;;;;;-0.37;86.60;98667.50;492624;1129;114567;-65
2021/01/19 21:57:28;;;;;;;28.27;15.90;;;;;;;-0.32;86.78;98669.03;492576;1128;114687;-64
2021/01/19 22:07:32;;;;;;;21.27;14.87;;;;;;;-0.34;86.94;98663.09;492775;1129;114466;-66
2021/01/19 22:17:37;;;;;;;23.17;16.97;;;;;;;-0.31;86.55;98662.15;493035;1133;114867;-65
2021/01/19 22:27:42;;;;;;;24.73;17.20;;;;;;;-0.32;86.16;98656.12;492619;1129;114848;-65
2021/01/19 22:37:46;;;;;;;19.30;15.03;;;;;;;-0.31;86.66;98642.34;492619;1129;114941;-65
2021/01/19 22:47:50;;;;;;;22.00;15.77;;;;;;;-0.26;86.61;98643.93;492243;1129;116216;-65
2021/01/19 22:57:54;;;;;;;21.10;15.07;;;;;;;-0.15;86.24;98628.91;492058;1128;115280;-64
2021/01/19 23:07:58;;;;;;;20.95;14.75;;;;;;;-0.12;85.91;98627.94;492525;1129;114809;-65
2021/01/19 23:18:03;;;;;;;20.80;13.23;;;;;;;-0.09;85.84;98627.85;493166;1129;115004;-62
2021/01/19 23:28:08;;;;;;;19.10;12.80;;;;;;;-0.14;85.82;98620.27;492457;1129;115407;-60
2021/01/19 23:38:11;;;;;;;19.50;12.67;;;;;;;-0.19;86.30;98628.17;492426;1128;115136;-60
2021/01/19 23:48:16;;;;;;;17.00;13.20;;;;;;;-0.22;86.24;98635.17;493333;1128;115331;-60
2021/01/19 23:58:20;;;;;;;22.17;14.93;;;;;;;-0.31;86.56;98626.85;492559;1128;114936;-59
